Le Roy, IL (61752)

2:07 AM CDT on October 01, 2014 (GMT -0500)
LeRoy Fertilizer | Change Station
CLOSE
Current Station
Personal Weather Station
Location: Le Roy, IL
Elevation: 784 ft
Nearby Weather Stations

Elev 784 ft 40.35 °N, 88.77 °W | Updated 8 minutes ago

Clear
Clear
50.1 °F
Feels Like 50.1 °F
N
2.0
Wind Variable Wind from ENE
Gusts 11.0 mph

Today
High -- | Low -- °F
--% Chance of Precip.
Yesterday
High -- | Low -- °F
Precip. -- in
6:51 AM 6:37 PM
Waxing Crescent, 44% visible
Pressure 29.95 in
Visibility 10.0 miles
Clouds Clear
Dew Point 47 °F
Humidity 90%
Rainfall 0.00 in
Snow Depth Not available.
UV 0 out of 12
Pollen 3.90 out of 12
Air Quality Not available.
Flu Activity Not available.
METAR KAAA 010635Z AUTO 08005KT 10SM CLR 12/09 A2995 RMK AO2 T01180090

More Conditions Fewer Conditions

Pressure 29.95 in
Visibility 10.0 miles
Clouds Clear
Dew Point 47 °F
Humidity 90%
Rainfall 0.00 in
Snow Depth Not available.
UV 0 out of 12
Pollen 3.90 out of 12
Air Quality Not available.
Flu Activity Not available.
METAR KAAA 010635Z AUTO 08005KT 10SM CLR 12/09 A2995 RMK AO2 T01180090

More Conditions Fewer Conditions

10-Day Weather Forecast

Almanac

Astronomy

Oct. 01, 2014 Rise Set
Actual Time 6:51 AM CDT 6:37 PM CDT
Civil Twilight 6:24 AM CDT 7:04 PM CDT
Nautical Twilight 5:52 AM CDT 7:35 PM CDT
Astronomical Twilight 5:20 AM CDT 8:07 PM CDT
Moon 1:52 PM CDT No Moon Set
Length of Visible Light 12h 40m
Length of Day
11h 45m
Tomorrow will be 2m 39s shorter.
Waxing Crescent, 44% of the Moon is Illuminated
Today
Waxing Crescent
Oct 1
First Quarter
Oct 8
Full
Oct 15
Last Quarter
Oct 23
New

Today's Extremes

State Highs State Lows

Community

WunderPhotos

Upload Photos

1,757,898 photos uploaded!

Nearby

Snow Depth

Station Depth Elevation
No new snow has been reported.

Earthquake Activity

City Distance Mag. Time & Date
No recent earthquake activity has been reported nearby.
Minimum magnitude displayed is 2.5.

Coastal Water Temperatures

Place Temperature
No Stations Reporting

Nearby Weather Stations